1898 NOT_NAMED (1898032S09063)


IBTrACS version v04r00. Visit IBTrACS website for data access.
Please direct all questions to the IBTrACS Q and A forum

Storm track - Intensity - Wind Radii - Intensity Data - Source Data - All data

Summary Information

Storm ID 1898032S09063
Start Feb 1 06Z
End Feb 9 06Z
ATCF IDs
Track status Best track data.

Storm track plot

Map of storm track

Intensity plots

No Intensity information for this storm


Radial wind information

No radial wind information for this storm


Position and Intensity Table

BASIN ISO_TIME_________ NATURE LAT LON
degrees north degrees east
SI 1898-02-01 06:00:00 NR -9.40 63.20
SI 09:00:00 NR -9.54 63.15
SI 12:00:00 NR -9.69 63.10
SI 15:00:00 NR -9.84 63.05
SI 18:00:00 NR -10.02 63.00
SI 21:00:00 NR -10.21 62.95
SI 1898-02-02 00:00:00 NR -10.44 62.90
SI 03:00:00 NR -10.70 62.85
SI 06:00:00 NR -11.00 62.80
SI 09:00:00 NR -11.34 62.75
SI 12:00:00 NR -11.72 62.70
SI 15:00:00 NR -12.13 62.66
SI 18:00:00 NR -12.56 62.61
SI 21:00:00 NR -13.00 62.57
SI 1898-02-03 00:00:00 NR -13.44 62.54
SI 03:00:00 NR -13.88 62.52
SI 06:00:00 NR -14.30 62.50
SI 09:00:00 NR -14.68 62.49
SI 12:00:00 NR -15.04 62.48
SI 15:00:00 NR -15.40 62.49
SI 18:00:00 NR -15.75 62.50
SI 21:00:00 NR -16.10 62.51
SI 1898-02-04 00:00:00 NR -16.43 62.54
SI 03:00:00 NR -16.77 62.57
SI 06:00:00 NR -17.10 62.60
SI 09:00:00 NR -17.44 62.62
SI 12:00:00 NR -17.78 62.65
SI 15:00:00 NR -18.11 62.68
SI 18:00:00 NR -18.44 62.72
SI 21:00:00 NR -18.76 62.77
SI 1898-02-05 00:00:00 NR -19.08 62.83
SI 03:00:00 NR -19.39 62.91
SI 06:00:00 NR -19.70 63.00
SI 09:00:00 NR -20.00 63.11
SI 12:00:00 NR -20.30 63.23
SI 15:00:00 NR -20.59 63.36
SI 18:00:00 NR -20.88 63.51
SI 21:00:00 NR -21.16 63.67
SI 1898-02-06 00:00:00 NR -21.44 63.84
SI 03:00:00 NR -21.72 64.02
SI 06:00:00 NR -22.00 64.20
SI 09:00:00 NR -22.29 64.38
SI 12:00:00 NR -22.58 64.56
SI 15:00:00 NR -22.87 64.76
SI 18:00:00 NR -23.15 64.96
SI 21:00:00 NR -23.43 65.16
SI 1898-02-07 00:00:00 NR -23.70 65.37
SI 03:00:00 NR -23.95 65.58
SI 06:00:00 NR -24.20 65.80
SI 09:00:00 NR -24.44 66.02
SI 12:00:00 NR -24.66 66.24
SI 15:00:00 NR -24.88 66.47
SI 18:00:00 NR -25.08 66.70
SI 21:00:00 NR -25.28 66.93
SI 1898-02-08 00:00:00 NR -25.46 67.16
SI 03:00:00 NR -25.63 67.38
SI 06:00:00 NR -25.80 67.60
SI 09:00:00 NR -25.96 67.81
SI 12:00:00 NR -26.11 68.02
SI 15:00:00 NR -26.25 68.22
SI 18:00:00 NR -26.39 68.42
SI 21:00:00 NR -26.52 68.62
SI 1898-02-09 00:00:00 NR -26.65 68.81
SI 03:00:00 NR -26.77 69.01
SI 06:00:00 NR -26.90 69.20

Source Information

Agency Information
USA
TOKYO
CMA
HKO
NEWDELHI
REUNION WMO-Best-Tracks.txt:Line=1816:xxxx898266
BOM
NADI
WELLINGTON
DS824
TD9636
TD9635
NEUMANN
MLC

All available IBTrACS Data

SEASON BASIN SUBBASIN ISO_TIME_________ NATURE LAT LON WMO AGENCY DIST2LAND LANDFALL IFLAG USA SSHS REUNION LAT REUNION LON REUNION TYPE REUNION TNUM STORM SPEED STORM DIR
Year degrees north degrees east km km 1 degrees north degrees east 1 kts degrees
1898 SI MM 1898-02-01 06:00:00 NR -9.40 63.20 reunion 1335 1325 _____O________ -1 -9.40 63.20 99 9.90 3 204
1898 SI MM 09:00:00 NR -9.54 63.15 1320 1300 _____P________ -1 -9.54 63.15 99 3 198
1898 SI MM 12:00:00 NR -9.69 63.10 1300 1290 _____P________ -1 -9.69 63.10 99 3 198
1898 SI MM 15:00:00 NR -9.84 63.05 1285 1265 _____P________ -1 -9.84 63.05 99 3 196
1898 SI MM 18:00:00 NR -10.02 63.00 1265 1245 _____P________ -1 -10.02 63.00 99 4 194
1898 SI MM 21:00:00 NR -10.21 62.95 1240 1220 _____P________ -1 -10.21 62.95 99 4 193
1898 SI MM 1898-02-02 00:00:00 NR -10.44 62.90 1220 1190 _____P________ -1 -10.44 62.90 99 5 192
1898 SI MM 03:00:00 NR -10.70 62.85 1185 1155 _____P________ -1 -10.70 62.85 99 6 190
1898 SI MM 06:00:00 NR -11.00 62.80 reunion 1155 1125 _____O________ -1 -11.00 62.80 99 9.90 7 189
1898 SI MM 09:00:00 NR -11.34 62.75 1125 1081 _____P________ -1 -11.34 62.75 99 7 188
1898 SI MM 12:00:00 NR -11.72 62.70 1081 1042 _____P________ -1 -11.72 62.70 99 8 186
1898 SI MM 15:00:00 NR -12.13 62.66 1042 998 _____P________ -1 -12.13 62.66 99 8 186
1898 SI MM 18:00:00 NR -12.56 62.61 988 950 _____P________ -1 -12.56 62.61 99 9 185
1898 SI MM 21:00:00 NR -13.00 62.57 950 907 _____P________ -1 -13.00 62.57 99 9 185
1898 SI MM 1898-02-03 00:00:00 NR -13.44 62.54 907 861 _____P________ -1 -13.44 62.54 99 9 184
1898 SI MM 03:00:00 NR -13.88 62.52 861 825 _____P________ -1 -13.88 62.52 99 9 182
1898 SI MM 06:00:00 NR -14.30 62.50 reunion 825 790 _____O________ -1 -14.30 62.50 99 9.90 8 182
1898 SI MM 09:00:00 NR -14.68 62.49 790 764 _____P________ -1 -14.68 62.49 99 7 182
1898 SI MM 12:00:00 NR -15.04 62.48 764 731 _____P________ -1 -15.04 62.48 99 7 182
1898 SI MM 15:00:00 NR -15.40 62.49 731 707 _____P________ -1 -15.40 62.49 99 7 178
1898 SI MM 18:00:00 NR -15.75 62.50 699 676 _____P________ -1 -15.75 62.50 99 7 179
1898 SI MM 21:00:00 NR -16.10 62.51 676 654 _____P________ -1 -16.10 62.51 99 7 177
1898 SI MM 1898-02-04 00:00:00 NR -16.43 62.54 654 635 _____P________ -1 -16.43 62.54 99 7 175
1898 SI MM 03:00:00 NR -16.77 62.57 635 615 _____P________ -1 -16.77 62.57 99 7 175
1898 SI MM 06:00:00 NR -17.10 62.60 reunion 615 597 _____O________ -1 -17.10 62.60 99 9.90 7 175
1898 SI MM 09:00:00 NR -17.44 62.62 597 575 _____P________ -1 -17.44 62.62 99 7 177
1898 SI MM 12:00:00 NR -17.78 62.65 575 570 _____P________ -1 -17.78 62.65 99 7 175
1898 SI MM 15:00:00 NR -18.11 62.68 570 556 _____P________ -1 -18.11 62.68 99 7 174
1898 SI MM 18:00:00 NR -18.44 62.72 556 547 _____P________ -1 -18.44 62.72 99 7 173
1898 SI MM 21:00:00 NR -18.76 62.77 550 540 _____P________ -1 -18.76 62.77 99 7 170
1898 SI MM 1898-02-05 00:00:00 NR -19.08 62.83 540 540 _____P________ -1 -19.08 62.83 99 6 168
1898 SI MM 03:00:00 NR -19.39 62.91 542 540 _____P________ -1 -19.39 62.91 99 6 166
1898 SI MM 06:00:00 NR -19.70 63.00 reunion 547 545 _____O________ -1 -19.70 63.00 99 9.90 6 163
1898 SI MM 09:00:00 NR -20.00 63.11 554 553 _____P________ -1 -20.00 63.11 99 6 161
1898 SI MM 12:00:00 NR -20.30 63.23 563 563 _____P________ -1 -20.30 63.23 99 6 158
1898 SI MM 15:00:00 NR -20.59 63.36 584 584 _____P________ -1 -20.59 63.36 99 6 155
1898 SI MM 18:00:00 NR -20.88 63.51 596 596 _____P________ -1 -20.88 63.51 99 6 153
1898 SI MM 21:00:00 NR -21.16 63.67 621 621 _____P________ -1 -21.16 63.67 99 6 152
1898 SI MM 1898-02-06 00:00:00 NR -21.44 63.84 635 635 _____P________ -1 -21.44 63.84 99 6 150
1898 SI MM 03:00:00 NR -21.72 64.02 662 662 _____P________ -1 -21.72 64.02 99 7 149
1898 SI MM 06:00:00 NR -22.00 64.20 reunion 690 690 _____O________ -1 -22.00 64.20 99 9.90 7 149
1898 SI MM 09:00:00 NR -22.29 64.38 719 719 _____P________ -1 -22.29 64.38 99 7 150
1898 SI MM 12:00:00 NR -22.58 64.56 748 748 _____P________ -1 -22.58 64.56 99 7 149
1898 SI MM 15:00:00 NR -22.87 64.76 779 779 _____P________ -1 -22.87 64.76 99 7 148
1898 SI MM 18:00:00 NR -23.15 64.96 810 810 _____P________ -1 -23.15 64.96 99 7 146
1898 SI MM 21:00:00 NR -23.43 65.16 838 838 _____P________ -1 -23.43 65.16 99 7 145
1898 SI MM 1898-02-07 00:00:00 NR -23.70 65.37 869 869 _____P________ -1 -23.70 65.37 99 7 144
1898 SI MM 03:00:00 NR -23.95 65.58 901 901 _____P________ -1 -23.95 65.58 99 6 142
1898 SI MM 06:00:00 NR -24.20 65.80 reunion 929 929 _____O________ -1 -24.20 65.80 99 9.90 6 141
1898 SI MM 09:00:00 NR -24.44 66.02 957 957 _____P________ -1 -24.44 66.02 99 6 139
1898 SI MM 12:00:00 NR -24.66 66.24 990 990 _____P________ -1 -24.66 66.24 99 6 137
1898 SI MM 15:00:00 NR -24.88 66.47 1027 1027 _____P________ -1 -24.88 66.47 99 6 135
1898 SI MM 18:00:00 NR -25.08 66.70 1055 1055 _____P________ -1 -25.08 66.70 99 6 134
1898 SI MM 21:00:00 NR -25.28 66.93 1083 1083 _____P________ -1 -25.28 66.93 99 6 132
1898 SI MM 1898-02-08 00:00:00 NR -25.46 67.16 1120 1120 _____P________ -1 -25.46 67.16 99 5 131
1898 SI MM 03:00:00 NR -25.63 67.38 1143 1143 _____P________ -1 -25.63 67.38 99 5 130
1898 SI MM 06:00:00 NR -25.80 67.60 reunion 1171 1171 _____O________ -1 -25.80 67.60 99 9.90 5 130
1898 SI MM 09:00:00 NR -25.96 67.81 1199 1199 _____P________ -1 -25.96 67.81 99 5 129
1898 SI MM 12:00:00 NR -26.11 68.02 1222 1222 _____P________ -1 -26.11 68.02 99 5 128
1898 SI MM 15:00:00 NR -26.25 68.22 1245 1245 _____P________ -1 -26.25 68.22 99 5 128
1898 SI MM 18:00:00 NR -26.39 68.42 1273 1273 _____P________ -1 -26.39 68.42 99 4 127
1898 SI MM 21:00:00 NR -26.52 68.62 1296 1296 _____P________ -1 -26.52 68.62 99 4 127
1898 SI MM 1898-02-09 00:00:00 NR -26.65 68.81 1319 1319 _____P________ -1 -26.65 68.81 99 4 127
1898 SI MM 03:00:00 NR -26.77 69.01 1347 1347 _____P________ -1 -26.77 69.01 99 4 126
1898 SI MM 06:00:00 NR -26.90 69.20 reunion 1370 _____O________ -1 -26.90 69.20 99 9.90 4 126